createdAt,value
2023-03-21T00:00:39.855Z,22.20
2023-03-21T00:04:22.834Z,21.60
2023-03-21T00:07:49.929Z,22.50
2023-03-21T00:11:17.291Z,22.90
2023-03-21T00:14:44.876Z,24.20
2023-03-21T00:18:12.062Z,24.20
2023-03-21T00:22:03.276Z,23.10
2023-03-21T00:25:29.492Z,21.30
2023-03-21T00:28:56.556Z,20.50
2023-03-21T00:32:24.662Z,20.30
2023-03-21T00:36:02.260Z,19.20
2023-03-21T00:39:30.114Z,19.20
2023-03-21T00:42:57.121Z,20.20
2023-03-21T00:46:27.596Z,18.60
2023-03-21T00:49:57.324Z,19.30
2023-03-21T00:53:24.811Z,19.70
2023-03-21T00:56:51.995Z,18.80
2023-03-21T01:00:21.391Z,18.90
2023-03-21T01:03:51.008Z,18.00
2023-03-21T01:07:18.283Z,19.70
2023-03-21T01:10:47.419Z,18.70
2023-03-21T01:14:22.522Z,19.40
2023-03-21T01:17:50.531Z,18.30
2023-03-21T01:21:18.222Z,19.50
2023-03-21T01:24:53.763Z,21.00
2023-03-21T01:28:22.872Z,20.80
2023-03-21T01:31:50.357Z,20.80
2023-03-21T01:35:18.204Z,20.50
2023-03-21T01:38:45.801Z,20.60
2023-03-21T01:42:16.303Z,22.20
2023-03-21T01:46:21.531Z,21.80
2023-03-21T01:50:09.044Z,20.60
2023-03-21T01:53:52.595Z,20.20
2023-03-21T01:57:35.341Z,19.40
2023-03-21T02:01:10.744Z,22.50
2023-03-21T02:04:56.131Z,21.90
2023-03-21T02:08:36.887Z,18.70
2023-03-21T02:12:10.463Z,18.40
2023-03-21T02:15:39.663Z,18.30
2023-03-21T02:19:52.917Z,16.80
2023-03-21T02:24:00.985Z,15.50
2023-03-21T02:27:30.322Z,14.10
2023-03-21T02:31:23.839Z,14.80
2023-03-21T02:35:16.051Z,15.00
2023-03-21T02:38:49.252Z,13.70
2023-03-21T02:42:22.910Z,14.90
2023-03-21T02:45:54.731Z,15.80
2023-03-21T02:49:28.603Z,17.60
2023-03-21T02:52:58.233Z,19.90
2023-03-21T02:56:28.700Z,18.00
2023-03-21T03:00:00.406Z,19.40
2023-03-21T03:03:38.946Z,21.50
2023-03-21T03:07:31.240Z,18.80
2023-03-21T03:11:13.364Z,15.80
2023-03-21T03:15:02.988Z,13.70
2023-03-21T03:18:42.918Z,13.60
2023-03-21T03:22:14.760Z,13.80
2023-03-21T03:25:49.132Z,13.90
2023-03-21T03:29:19.462Z,13.70
2023-03-21T03:32:50.261Z,13.00
2023-03-21T03:36:31.068Z,13.30
2023-03-21T03:40:05.826Z,13.70
2023-03-21T03:43:40.823Z,14.90
2023-03-21T03:47:17.426Z,17.40
2023-03-21T03:50:58.626Z,17.90
2023-03-21T03:54:38.282Z,15.70
2023-03-21T03:58:10.629Z,17.40
2023-03-21T04:01:47.096Z,17.40
2023-03-21T04:05:14.585Z,17.60
2023-03-21T04:08:41.993Z,17.50
2023-03-21T04:12:09.369Z,18.80
2023-03-21T04:15:37.443Z,17.40
2023-03-21T04:19:10.978Z,18.10
2023-03-21T04:22:38.084Z,19.70
2023-03-21T04:26:05.866Z,19.50
2023-03-21T04:29:39.675Z,19.30
2023-03-21T04:33:32.927Z,21.20
2023-03-21T04:36:59.973Z,20.20
2023-03-21T04:40:27.780Z,21.50
2023-03-21T04:43:56.565Z,20.90
2023-03-21T04:47:24.096Z,20.10
2023-03-21T04:50:51.658Z,19.90
2023-03-21T04:54:19.132Z,20.80
2023-03-21T04:57:46.186Z,19.70
2023-03-21T05:01:14.702Z,19.20
2023-03-21T05:04:42.487Z,19.20
2023-03-21T05:08:09.725Z,18.00
2023-03-21T05:11:38.796Z,18.90
2023-03-21T05:15:07.028Z,18.80
2023-03-21T05:18:38.693Z,17.50
2023-03-21T05:22:12.240Z,19.10
2023-03-21T05:25:40.339Z,19.80
2023-03-21T05:29:13.939Z,19.00
2023-03-21T05:32:42.724Z,19.70
2023-03-21T05:36:12.921Z,20.60
2023-03-21T05:39:40.401Z,21.30
2023-03-21T05:43:12.359Z,18.50
2023-03-21T05:46:40.018Z,20.10
2023-03-21T05:50:08.510Z,20.50
2023-03-21T05:53:36.401Z,21.00
2023-03-21T05:57:04.813Z,21.30
2023-03-21T06:00:58.746Z,21.60
2023-03-21T06:04:29.733Z,21.90
2023-03-21T06:07:57.026Z,22.90
2023-03-21T06:11:28.421Z,21.70
2023-03-21T06:15:14.098Z,19.30
2023-03-21T06:18:54.775Z,19.90
2023-03-21T06:22:34.953Z,20.00
2023-03-21T06:26:02.542Z,20.50
2023-03-21T06:29:31.339Z,21.20
2023-03-21T06:32:58.596Z,23.10
2023-03-21T06:36:26.279Z,23.00
2023-03-21T06:39:55.400Z,23.60
2023-03-21T06:43:23.177Z,20.80
2023-03-21T06:46:50.710Z,19.20
2023-03-21T06:50:19.420Z,18.10
2023-03-21T06:53:46.803Z,18.60
2023-03-21T06:57:25.436Z,17.90
2023-03-21T07:00:53.967Z,16.60
2023-03-21T07:04:21.449Z,16.40
2023-03-21T07:07:49.075Z,16.50
2023-03-21T07:11:16.390Z,16.20
2023-03-21T07:14:46.895Z,15.00
2023-03-21T07:18:13.937Z,16.70
2023-03-21T07:21:43.117Z,16.70
2023-03-21T07:25:12.109Z,16.40
2023-03-21T07:28:40.071Z,16.10
2023-03-21T07:32:07.811Z,15.00
2023-03-21T07:35:36.659Z,15.70
2023-03-21T07:39:05.120Z,15.80
2023-03-21T07:46:04.235Z,16.80
2023-03-21T07:49:31.577Z,16.00
2023-03-21T07:52:58.663Z,19.90
2023-03-21T07:56:25.870Z,16.10
2023-03-21T07:59:53.020Z,16.70
2023-03-21T08:03:20.253Z,15.70
2023-03-21T08:06:48.054Z,15.00
2023-03-21T08:10:17.687Z,15.50
2023-03-21T08:13:54.241Z,16.50
2023-03-21T08:17:24.253Z,18.60
2023-03-21T08:20:57.104Z,21.40
2023-03-21T08:24:24.434Z,15.70
2023-03-21T08:27:56.752Z,16.40
2023-03-21T08:31:25.801Z,15.00
2023-03-21T08:34:53.730Z,16.20
2023-03-21T08:38:21.618Z,15.80
2023-03-21T08:41:51.453Z,16.50
2023-03-21T08:45:20.683Z,16.00
2023-03-21T08:48:47.839Z,16.40
2023-03-21T08:52:15.792Z,16.50
2023-03-21T08:55:42.953Z,17.90
2023-03-21T08:59:10.320Z,15.70
2023-03-21T09:02:37.486Z,14.80
2023-03-21T09:06:04.859Z,17.40
2023-03-21T09:09:32.978Z,17.80
2023-03-21T09:13:00.202Z,17.40
2023-03-21T09:16:27.568Z,16.10
2023-03-21T09:19:54.745Z,16.80
2023-03-21T09:23:21.834Z,16.90
2023-03-21T09:26:51.730Z,17.40
2023-03-21T09:30:23.726Z,18.20
2023-03-21T09:33:53.289Z,19.70
2023-03-21T09:37:22.470Z,18.70
2023-03-21T09:41:05.092Z,17.20
2023-03-21T09:44:45.038Z,18.90
2023-03-21T09:48:31.465Z,17.60
2023-03-21T09:52:03.564Z,18.70
2023-03-21T09:55:35.107Z,17.80
2023-03-21T09:59:05.081Z,19.10
2023-03-21T10:02:40.232Z,19.00
2023-03-21T10:06:13.215Z,19.40
2023-03-21T10:09:42.292Z,19.40
2023-03-21T10:13:16.819Z,18.30
2023-03-21T10:16:48.010Z,18.80
2023-03-21T10:20:21.440Z,19.20
2023-03-21T10:23:52.084Z,18.40
2023-03-21T10:27:19.346Z,20.50
2023-03-21T10:30:50.229Z,20.70
2023-03-21T10:34:21.794Z,23.20
2023-03-21T10:37:49.748Z,22.10
2023-03-21T10:41:17.228Z,23.10
2023-03-21T10:44:50.384Z,23.00
2023-03-21T10:48:18.078Z,22.60
2023-03-21T10:51:47.303Z,21.80
2023-03-21T10:55:24.385Z,21.30
2023-03-21T10:58:53.975Z,22.20
2023-03-21T11:02:26.504Z,21.30
2023-03-21T11:05:58.015Z,21.30
2023-03-21T11:09:26.116Z,20.80
2023-03-21T11:12:57.482Z,20.60
2023-03-21T11:16:33.310Z,19.50
2023-03-21T11:20:05.085Z,19.90
2023-03-21T11:23:35.598Z,20.10
2023-03-21T11:27:07.536Z,19.30
2023-03-21T11:30:34.932Z,19.70
2023-03-21T11:34:06.859Z,18.30
2023-03-21T11:37:46.367Z,15.30
2023-03-21T11:45:04.840Z,12.70
2023-03-21T11:48:33.355Z,13.00
2023-03-21T11:52:16.174Z,13.50
2023-03-21T11:55:55.418Z,12.60
2023-03-21T11:59:38.145Z,12.40
2023-03-21T12:03:48.602Z,13.50
2023-03-21T12:07:34.045Z,11.60
2023-03-21T12:11:09.681Z,11.70
2023-03-21T12:14:46.619Z,12.30
2023-03-21T12:18:27.145Z,11.70
2023-03-21T12:22:09.309Z,12.30
2023-03-21T12:25:41.687Z,12.70
2023-03-21T12:29:31.143Z,12.80
2023-03-21T12:33:15.736Z,12.90
2023-03-21T12:37:07.675Z,13.20
2023-03-21T12:40:51.189Z,13.40
2023-03-21T12:44:22.507Z,12.50
2023-03-21T12:47:57.227Z,13.80
2023-03-21T12:51:32.585Z,12.90
2023-03-21T12:55:04.820Z,14.60
2023-03-21T12:58:39.142Z,14.80
2023-03-21T13:02:18.984Z,16.60
2023-03-21T13:05:50.121Z,15.60
2023-03-21T13:09:36.740Z,16.80
2023-03-21T13:13:20.889Z,15.70
2023-03-21T13:16:56.274Z,18.60
2023-03-21T13:20:32.282Z,16.10
2023-03-21T13:24:19.702Z,17.90
2023-03-21T13:27:56.037Z,17.10
2023-03-21T13:31:32.024Z,17.70
2023-03-21T13:35:19.466Z,18.10
2023-03-21T13:38:54.071Z,17.10
2023-03-21T13:42:32.446Z,17.80
2023-03-21T13:46:09.398Z,17.80
2023-03-21T13:49:39.118Z,17.40
2023-03-21T13:57:00.007Z,18.20
2023-03-21T14:00:35.692Z,18.50
2023-03-21T14:04:11.721Z,18.50
2023-03-21T14:07:44.233Z,20.20
2023-03-21T14:11:17.444Z,19.10
2023-03-21T14:14:48.630Z,19.50
2023-03-21T14:18:28.240Z,18.10
2023-03-21T14:22:14.571Z,20.80
2023-03-21T14:25:47.518Z,20.80
2023-03-21T14:29:26.772Z,19.10
2023-03-21T14:32:57.724Z,18.60
2023-03-21T14:36:28.722Z,19.40
2023-03-21T14:40:02.942Z,16.20
2023-03-21T14:43:34.103Z,16.90
2023-03-21T14:47:05.856Z,16.50
2023-03-21T14:50:39.877Z,14.60
2023-03-21T14:54:07.671Z,14.90
2023-03-21T14:57:35.931Z,16.30
2023-03-21T15:01:05.706Z,15.90
2023-03-21T15:04:34.144Z,15.30
2023-03-21T15:08:03.128Z,16.60
2023-03-21T15:11:35.495Z,16.50
2023-03-21T15:15:04.002Z,16.70
2023-03-21T15:18:34.255Z,17.40
2023-03-21T15:22:07.318Z,18.50
2023-03-21T15:25:38.636Z,18.00
2023-03-21T15:29:09.208Z,17.90
2023-03-21T15:32:39.138Z,17.60
2023-03-21T15:36:12.721Z,20.30
2023-03-21T15:39:39.959Z,20.30
2023-03-21T15:43:17.443Z,18.70
2023-03-21T15:46:48.254Z,20.00
2023-03-21T15:50:26.772Z,19.70
2023-03-21T15:53:55.891Z,19.90
2023-03-21T15:57:25.900Z,20.50
2023-03-21T16:00:55.668Z,20.30
2023-03-21T16:04:24.437Z,21.70
2023-03-21T16:07:52.247Z,22.40
2023-03-21T16:11:25.630Z,22.10
2023-03-21T16:14:53.201Z,23.10
2023-03-21T16:18:22.874Z,22.50
2023-03-21T16:25:16.052Z,22.30
2023-03-21T16:28:43.713Z,23.10
2023-03-21T16:32:17.121Z,23.10
2023-03-21T16:35:44.341Z,18.80
2023-03-21T16:39:21.090Z,19.10
2023-03-21T16:42:48.402Z,20.20
2023-03-21T16:46:17.905Z,17.50
2023-03-21T16:49:47.963Z,18.20
2023-03-21T16:53:17.298Z,19.40
2023-03-21T16:56:47.561Z,19.90
2023-03-21T17:00:20.891Z,19.30
2023-03-21T17:03:48.770Z,19.90
2023-03-21T17:07:16.298Z,22.00
2023-03-21T17:10:44.146Z,20.60
2023-03-21T17:14:16.965Z,22.70
2023-03-21T17:17:44.744Z,22.00
2023-03-21T17:21:16.407Z,23.90
2023-03-21T17:24:43.821Z,23.40
2023-03-21T17:28:11.844Z,23.60
2023-03-21T17:31:40.297Z,24.00
2023-03-21T17:35:08.880Z,23.50
2023-03-21T17:38:39.431Z,25.20
2023-03-21T17:42:16.500Z,25.70
2023-03-21T17:45:44.311Z,27.00
2023-03-21T17:49:14.447Z,25.50
2023-03-21T17:52:42.125Z,26.10
2023-03-21T17:56:16.233Z,26.90
2023-03-21T17:59:44.198Z,23.80
2023-03-21T18:03:11.607Z,24.80
2023-03-21T18:06:39.070Z,27.60
2023-03-21T18:10:07.463Z,30.70
2023-03-21T18:13:35.767Z,38.30
2023-03-21T18:17:04.828Z,38.90
2023-03-21T18:24:22.341Z,33.50
2023-03-21T18:28:10.190Z,35.90
2023-03-21T18:31:38.809Z,36.40
2023-03-21T18:35:07.076Z,35.80
2023-03-21T18:38:34.250Z,33.10
2023-03-21T18:42:04.498Z,33.80
2023-03-21T18:45:34.782Z,33.70
2023-03-21T18:49:33.730Z,34.30
2023-03-21T18:52:49.756Z,33.90
2023-03-21T19:00:09.627Z,32.20
2023-03-21T19:03:37.790Z,31.40
2023-03-21T19:07:08.088Z,31.40
2023-03-21T19:10:37.860Z,30.30
2023-03-21T19:14:06.702Z,31.30
2023-03-21T19:21:22.024Z,35.70
2023-03-21T19:24:50.275Z,39.40
2023-03-21T19:28:17.542Z,41.50
2023-03-21T19:31:46.520Z,44.80
2023-03-21T19:35:15.179Z,43.90
2023-03-21T19:38:43.331Z,42.30
2023-03-21T19:42:16.948Z,42.90
2023-03-21T19:45:47.940Z,49.60
2023-03-21T19:49:20.152Z,50.70
2023-03-21T19:52:47.277Z,46.10
2023-03-21T19:56:22.495Z,51.50
2023-03-21T19:59:54.985Z,46.10
2023-03-21T20:03:23.013Z,47.90
2023-03-21T20:06:50.803Z,49.40
2023-03-21T20:10:18.724Z,48.20
2023-03-21T20:13:46.679Z,45.50
2023-03-21T20:17:17.136Z,44.10
2023-03-21T20:20:44.817Z,45.00
2023-03-21T20:24:13.074Z,42.60
2023-03-21T20:27:41.559Z,43.20
2023-03-21T20:31:09.838Z,43.30
2023-03-21T20:34:40.368Z,45.50
2023-03-21T20:38:09.734Z,44.90
2023-03-21T20:41:37.027Z,43.70
2023-03-21T20:45:04.034Z,45.10
2023-03-21T20:48:31.773Z,44.20
2023-03-21T20:55:47.314Z,44.20
2023-03-21T20:59:24.563Z,46.10
2023-03-21T21:02:54.090Z,43.00
2023-03-21T21:06:23.009Z,41.60
2023-03-21T21:09:51.430Z,44.20
2023-03-21T21:13:19.679Z,41.60
2023-03-21T21:16:47.857Z,42.20
2023-03-21T21:20:17.711Z,41.80
2023-03-21T21:27:10.899Z,40.70
2023-03-21T21:30:41.376Z,40.80
2023-03-21T21:34:08.677Z,41.20
2023-03-21T21:37:35.862Z,41.20
2023-03-21T21:41:04.339Z,38.10
2023-03-21T21:44:31.653Z,39.90
2023-03-21T21:47:59.005Z,41.20
2023-03-21T21:51:27.187Z,38.00
2023-03-21T21:54:54.638Z,40.70
2023-03-21T21:58:22.058Z,41.10
2023-03-21T22:01:51.291Z,43.30
2023-03-21T22:05:19.527Z,41.90
2023-03-21T22:08:48.363Z,42.40
2023-03-21T22:12:16.919Z,44.10
2023-03-21T22:15:44.539Z,43.40
2023-03-21T22:19:12.263Z,42.80
2023-03-21T22:22:43.113Z,44.60
2023-03-21T22:26:11.947Z,45.10
2023-03-21T22:29:39.365Z,44.20
2023-03-21T22:33:09.988Z,44.20
2023-03-21T22:36:38.184Z,42.40
2023-03-21T22:40:08.329Z,44.30
2023-03-21T22:43:35.808Z,46.20
2023-03-21T22:47:03.071Z,48.00
2023-03-21T22:50:31.285Z,47.10
2023-03-21T22:53:59.342Z,47.60
2023-03-21T22:57:27.003Z,46.10
2023-03-21T23:00:54.336Z,47.60
2023-03-21T23:04:21.866Z,47.50
2023-03-21T23:07:49.212Z,46.80
2023-03-21T23:11:16.506Z,45.20
2023-03-21T23:14:43.560Z,45.20
2023-03-21T23:18:11.031Z,46.60
2023-03-21T23:21:38.477Z,47.00
2023-03-21T23:25:07.605Z,47.30
2023-03-21T23:28:34.824Z,49.30
2023-03-21T23:32:02.218Z,46.00
2023-03-21T23:35:30.031Z,47.50
2023-03-21T23:38:57.171Z,48.90
2023-03-21T23:42:25.189Z,49.80
2023-03-21T23:45:52.601Z,50.00
2023-03-21T23:49:20.684Z,52.50
2023-03-21T23:52:47.714Z,52.90
2023-03-21T23:56:19.769Z,52.20
2023-03-21T23:59:47.210Z,53.00
